Time;durP1;ratioP1;P1;durP2;ratioP2;P2;SDS_P1;SDS_P2;PMS_P1;PMS_P2;Temp;Humidity;BMP_temperature;BMP_pressure;BME280_temperature;BME280_humidity;BME280_pressure;Samples;Min_cycle;Max_cycle;Signal;HPM_P1;HPM_P2
2022/09/23 00:00:45;;;;;;;12.93;11.68;;;10.00;99.90;;;;;;5039204;28;20048;-72
2022/09/23 00:03:11;;;;;;;14.10;10.88;;;10.00;99.90;;;;;;5046738;28;20590;-73
2022/09/23 00:05:37;;;;;;;10.93;9.90;;;10.00;99.90;;;;;;5046713;28;20044;-73
2022/09/23 00:08:04;;;;;;;12.10;11.02;;;10.00;99.90;;;;;;5049617;28;20155;-72
2022/09/23 00:10:30;;;;;;;10.38;9.13;;;9.90;99.90;;;;;;5044496;28;20056;-73
2022/09/23 00:12:56;;;;;;;10.82;9.90;;;9.90;99.90;;;;;;5044415;28;20297;-72
2022/09/23 00:15:24;;;;;;;11.07;10.00;;;9.90;99.90;;;;;;5050136;28;20041;-73
2022/09/23 00:17:50;;;;;;;11.00;9.98;;;9.90;99.90;;;;;;5049991;28;20049;-72
2022/09/23 00:20:16;;;;;;;11.30;10.10;;;9.90;99.90;;;;;;5050166;28;20627;-72
2022/09/23 00:22:43;;;;;;;13.75;10.48;;;9.90;99.90;;;;;;5049523;28;20048;-73
2022/09/23 00:25:10;;;;;;;12.00;10.70;;;9.90;99.90;;;;;;5045003;28;20132;-72
2022/09/23 00:27:36;;;;;;;10.52;9.73;;;9.90;99.90;;;;;;5049298;28;20489;-73
2022/09/23 00:30:04;;;;;;;11.15;9.95;;;9.80;99.90;;;;;;5044302;28;20045;-73
2022/09/23 00:32:30;;;;;;;14.55;11.30;;;9.80;99.90;;;;;;5049945;28;20623;-72
2022/09/23 00:34:56;;;;;;;14.05;12.63;;;9.90;99.90;;;;;;5041673;28;20151;-73
2022/09/23 00:37:22;;;;;;;13.38;11.93;;;9.90;99.90;;;;;;5053818;28;20036;-73
2022/09/23 00:39:47;;;;;;;13.15;11.75;;;9.90;99.90;;;;;;5047503;28;20058;-73
2022/09/23 00:42:16;;;;;;;12.55;11.00;;;9.90;99.90;;;;;;5061256;28;20040;-73
2022/09/23 00:44:48;;;;;;;12.32;11.20;;;9.90;99.90;;;;;;5042557;28;20063;-72
2022/09/23 00:47:38;;;;;;;11.80;10.63;;;9.80;99.90;;;;;;5054819;28;20145;-72
2022/09/23 00:50:13;;;;;;;14.00;12.55;;;9.80;99.90;;;;;;5040587;28;20224;-72
2022/09/23 00:52:39;;;;;;;14.27;12.90;;;9.80;99.90;;;;;;5041984;28;20056;-72
2022/09/23 00:55:09;;;;;;;10.95;9.85;;;9.80;99.90;;;;;;5056439;28;20048;-71
2022/09/23 00:57:37;;;;;;;13.43;12.23;;;9.80;99.90;;;;;;5044595;28;20051;-72
2022/09/23 01:00:05;;;;;;;12.27;11.20;;;9.80;99.90;;;;;;5049345;28;20119;-72
2022/09/23 01:02:31;;;;;;;13.07;11.73;;;9.80;99.90;;;;;;5057163;28;20573;-72
2022/09/23 01:04:57;;;;;;;14.05;12.70;;;9.70;99.90;;;;;;5052963;28;20049;-73
2022/09/23 01:07:23;;;;;;;15.10;13.70;;;9.70;99.90;;;;;;5045939;28;20573;-72
2022/09/23 01:09:50;;;;;;;15.82;14.23;;;9.70;99.90;;;;;;5057060;28;20052;-72
2022/09/23 01:12:21;;;;;;;13.02;11.73;;;9.60;99.90;;;;;;5042598;28;20494;-73
2022/09/23 01:14:47;;;;;;;13.82;12.00;;;9.60;99.90;;;;;;5045703;28;20099;-72
2022/09/23 01:17:46;;;;;;;12.52;11.23;;;9.60;99.90;;;;;;5054672;28;20152;-72
2022/09/23 01:20:23;;;;;;;14.02;12.55;;;9.60;99.90;;;;;;5057592;28;20910;-72
2022/09/23 01:23:17;;;;;;;14.57;13.07;;;9.60;99.90;;;;;;5053557;28;20056;-72
2022/09/23 01:26:05;;;;;;;13.00;11.70;;;9.50;99.90;;;;;;5040147;28;20599;-72
2022/09/23 01:28:53;;;;;;;12.38;11.07;;;9.50;99.90;;;;;;5053186;28;20049;-72
2022/09/23 01:31:37;;;;;;;13.80;12.27;;;9.50;99.90;;;;;;5041192;28;20067;-72
2022/09/23 01:34:18;;;;;;;14.45;12.88;;;9.50;99.90;;;;;;5046568;28;20057;-72
2022/09/23 01:36:53;;;;;;;13.68;12.27;;;9.50;99.90;;;;;;5053125;28;20409;-71
2022/09/23 01:39:35;;;;;;;15.63;12.60;;;9.50;99.90;;;;;;5050616;28;20063;-72
2022/09/23 01:42:00;;;;;;;13.73;11.60;;;9.50;99.90;;;;;;5044084;28;20051;-72
2022/09/23 01:44:33;;;;;;;13.38;11.77;;;9.70;99.90;;;;;;5060390;28;20052;-72
2022/09/23 01:47:10;;;;;;;17.92;14.02;;;9.40;99.90;;;;;;5057591;28;20052;-72
2022/09/23 01:49:55;;;;;;;13.10;11.80;;;9.40;99.90;;;;;;5044506;28;20044;-72
2022/09/23 01:52:46;;;;;;;14.57;13.05;;;9.50;99.90;;;;;;5040609;28;20861;-73
2022/09/23 01:55:14;;;;;;;13.85;12.52;;;9.50;99.90;;;;;;5055037;28;20048;-73
2022/09/23 01:57:48;;;;;;;13.50;12.20;;;9.50;99.90;;;;;;5050843;28;20041;-72
2022/09/23 02:00:16;;;;;;;13.88;12.48;;;9.50;99.90;;;;;;5046598;28;20120;-74
2022/09/23 02:02:48;;;;;;;14.07;12.70;;;9.40;99.90;;;;;;5055474;28;20051;-72
2022/09/23 02:05:29;;;;;;;15.10;13.70;;;9.40;99.90;;;;;;5048997;28;20118;-72
2022/09/23 02:07:59;;;;;;;12.23;11.02;;;9.40;99.90;;;;;;5050199;28;20086;-72
2022/09/23 02:10:48;;;;;;;14.95;13.52;;;9.40;99.90;;;;;;5053445;28;20486;-72
2022/09/23 02:13:23;;;;;;;14.05;12.68;;;9.40;99.90;;;;;;5052471;28;20048;-72
2022/09/23 02:15:56;;;;;;;13.77;12.45;;;9.40;99.90;;;;;;5041172;28;20430;-72
2022/09/23 02:18:26;;;;;;;14.45;13.00;;;9.50;99.90;;;;;;5049959;28;20123;-73
2022/09/23 02:20:56;;;;;;;15.10;13.43;;;9.40;99.90;;;;;;5040429;28;20155;-72
2022/09/23 02:23:28;;;;;;;13.00;11.38;;;9.50;99.90;;;;;;5042535;28;21036;-72
2022/09/23 02:26:13;;;;;;;13.35;12.00;;;9.40;99.90;;;;;;5040774;28;20045;-72
2022/09/23 02:29:18;;;;;;;13.90;11.65;;;9.40;99.90;;;;;;5038652;28;20170;-72
2022/09/23 02:32:13;;;;;;;14.63;13.10;;;9.40;99.90;;;;;;5033706;28;20064;-72
2022/09/23 02:34:57;;;;;;;14.20;12.45;;;9.40;99.90;;;;;;5049818;28;20620;-72
2022/09/23 02:37:52;;;;;;;14.40;12.98;;;9.40;99.90;;;;;;5050175;28;20036;-72
2022/09/23 02:40:26;;;;;;;14.93;13.60;;;9.40;99.90;;;;;;5048551;28;21173;-72
2022/09/23 02:43:04;;;;;;;15.00;13.50;;;9.40;99.90;;;;;;5043847;28;20895;-72
2022/09/23 02:45:30;;;;;;;17.08;15.30;;;9.30;99.90;;;;;;5046747;28;20059;-71
2022/09/23 02:48:34;;;;;;;14.43;12.93;;;9.30;99.90;;;;;;5047327;28;20044;-72
2022/09/23 02:51:02;;;;;;;14.98;13.48;;;9.30;99.90;;;;;;5054579;28;20203;-72
2022/09/23 02:53:32;;;;;;;15.35;13.75;;;9.30;99.90;;;;;;5047280;28;20132;-72
2022/09/23 02:55:58;;;;;;;14.27;12.98;;;9.20;99.90;;;;;;5040797;28;20056;-72
2022/09/23 02:58:24;;;;;;;12.15;10.95;;;9.20;99.90;;;;;;5041917;28;20098;-72
2022/09/23 03:01:25;;;;;;;14.55;13.05;;;9.10;99.90;;;;;;5056180;28;20056;-72
2022/09/23 03:04:08;;;;;;;12.30;11.02;;;9.10;99.90;;;;;;5039462;28;20060;-72
2022/09/23 03:06:55;;;;;;;13.70;11.93;;;9.00;99.90;;;;;;5052696;28;20048;-72
2022/09/23 03:09:53;;;;;;;14.15;12.75;;;9.00;99.90;;;;;;5040911;28;20094;-72
2022/09/23 03:12:34;;;;;;;20.20;12.30;;;8.90;99.90;;;;;;5042657;28;20045;-72
2022/09/23 03:15:06;;;;;;;16.35;14.63;;;8.90;99.90;;;;;;5041892;28;20037;-72
2022/09/23 03:17:48;;;;;;;13.73;12.43;;;8.90;99.90;;;;;;5048811;28;20041;-73
2022/09/23 03:20:49;;;;;;;20.30;16.05;;;8.90;99.90;;;;;;5045550;28;20068;-72
2022/09/23 03:23:22;;;;;;;15.65;14.07;;;8.90;99.90;;;;;;5047368;28;20057;-72
2022/09/23 03:25:49;;;;;;;13.63;12.43;;;8.80;99.90;;;;;;5038732;28;20090;-72
2022/09/23 03:28:17;;;;;;;15.98;14.55;;;8.90;99.90;;;;;;5047272;28;20602;-72
2022/09/23 03:30:43;;;;;;;14.10;12.73;;;8.80;99.90;;;;;;5042153;28;20187;-72
2022/09/23 03:33:11;;;;;;;15.20;13.77;;;8.70;99.90;;;;;;5054387;28;20072;-72
2022/09/23 03:38:33;;;;;;;16.15;14.50;;;8.70;99.90;;;;;;5045501;28;20044;-71
2022/09/23 03:41:02;;;;;;;16.13;14.63;;;8.60;99.90;;;;;;5042763;28;20133;-71
2022/09/23 03:43:29;;;;;;;14.55;13.05;;;8.60;99.90;;;;;;5048847;28;20040;-72
2022/09/23 03:45:56;;;;;;;16.50;14.90;;;8.50;99.90;;;;;;5037726;28;20414;-71
2022/09/23 03:48:26;;;;;;;14.50;12.98;;;8.50;99.90;;;;;;5038450;28;20044;-72
2022/09/23 03:50:52;;;;;;;13.85;12.25;;;8.50;99.90;;;;;;5049348;28;20048;-72
2022/09/23 03:53:20;;;;;;;16.02;14.43;;;8.50;99.90;;;;;;5039070;28;20158;-73
2022/09/23 03:55:46;;;;;;;13.52;12.32;;;8.50;99.90;;;;;;5049209;28;20060;-72
2022/09/23 03:58:12;;;;;;;16.45;14.90;;;8.40;99.90;;;;;;5057271;28;20103;-72
2022/09/23 04:00:38;;;;;;;15.95;14.43;;;8.50;99.90;;;;;;5041988;28;20068;-72
2022/09/23 04:03:04;;;;;;;16.55;14.88;;;8.40;99.90;;;;;;5050038;28;20059;-72
2022/09/23 04:05:29;;;;;;;18.27;16.55;;;8.40;99.90;;;;;;5050125;28;20562;-72
2022/09/23 04:07:55;;;;;;;18.58;16.52;;;8.30;99.90;;;;;;5044004;28;20045;-72
2022/09/23 04:10:21;;;;;;;15.57;14.10;;;8.30;99.90;;;;;;5050965;28;20602;-71
2022/09/23 04:12:47;;;;;;;16.15;14.57;;;8.40;99.90;;;;;;5049127;28;20140;-71
2022/09/23 04:15:12;;;;;;;14.52;13.00;;;8.30;99.90;;;;;;5054941;28;20075;-72
2022/09/23 04:17:38;;;;;;;15.90;14.27;;;8.30;99.90;;;;;;5052939;28;20131;-72
2022/09/23 04:20:04;;;;;;;15.68;13.43;;;8.20;99.90;;;;;;5052999;28;20044;-72
2022/09/23 04:22:32;;;;;;;15.07;13.68;;;8.30;99.90;;;;;;5046267;28;20076;-72
2022/09/23 04:24:58;;;;;;;15.50;14.05;;;8.30;99.90;;;;;;5057520;28;20045;-72
2022/09/23 04:27:24;;;;;;;16.27;14.45;;;8.30;99.90;;;;;;5045506;28;20075;-72
2022/09/23 04:29:49;;;;;;;16.95;15.10;;;8.20;99.90;;;;;;5046513;28;20045;-72
2022/09/23 04:32:15;;;;;;;17.20;15.35;;;8.20;99.90;;;;;;5056666;28;20045;-72
2022/09/23 04:34:41;;;;;;;16.00;14.52;;;8.20;99.90;;;;;;5051580;28;20098;-72
2022/09/23 04:37:07;;;;;;;17.35;15.57;;;8.10;99.90;;;;;;5045456;28;20079;-72
2022/09/23 04:39:32;;;;;;;17.92;16.02;;;8.20;99.90;;;;;;5049150;28;20119;-72
2022/09/23 04:41:58;;;;;;;17.77;16.10;;;8.20;99.90;;;;;;5053767;28;20123;-72
2022/09/23 04:44:25;;;;;;;15.63;14.10;;;8.20;99.90;;;;;;5047248;28;20052;-72
2022/09/23 04:46:51;;;;;;;18.20;15.57;;;8.10;99.90;;;;;;5050395;28;20057;-72
2022/09/23 04:49:17;;;;;;;16.98;15.20;;;8.10;99.90;;;;;;5045926;28;20914;-72
2022/09/23 04:51:43;;;;;;;16.83;15.13;;;8.10;99.90;;;;;;5045983;28;21458;-72
2022/09/23 04:54:10;;;;;;;17.55;15.85;;;8.10;99.90;;;;;;5047900;28;20132;-72
2022/09/23 04:56:36;;;;;;;18.75;16.85;;;8.10;99.90;;;;;;5052400;28;20044;-73
2022/09/23 04:59:02;;;;;;;18.40;16.45;;;8.10;99.90;;;;;;5048686;28;20692;-74
2022/09/23 05:01:33;;;;;;;17.30;15.50;;;8.10;99.90;;;;;;5049762;28;20155;-74
2022/09/23 05:04:04;;;;;;;19.50;17.40;;;8.10;99.90;;;;;;5048395;28;20123;-71
2022/09/23 05:06:33;;;;;;;21.80;17.30;;;8.10;99.90;;;;;;5051274;28;20056;-72
2022/09/23 05:09:00;;;;;;;19.23;17.30;;;8.10;99.90;;;;;;5052425;28;20056;-72
2022/09/23 05:11:27;;;;;;;17.25;15.45;;;8.20;99.90;;;;;;5047483;28;20127;-72
2022/09/23 05:13:54;;;;;;;17.58;15.90;;;8.20;99.90;;;;;;5046538;28;20505;-72
2022/09/23 05:16:24;;;;;;;15.48;13.98;;;8.20;99.90;;;;;;5052364;28;20048;-72
2022/09/23 05:18:51;;;;;;;16.85;15.15;;;8.20;99.90;;;;;;5039489;28;20814;-72
2022/09/23 05:21:20;;;;;;;18.83;16.73;;;8.10;99.90;;;;;;5044959;28;20048;-72
2022/09/23 05:23:53;;;;;;;19.10;16.02;;;8.30;99.90;;;;;;5049632;28;20044;-72
2022/09/23 05:26:21;;;;;;;15.80;14.23;;;8.20;99.90;;;;;;5050834;28;20122;-71
2022/09/23 05:28:47;;;;;;;16.80;14.90;;;8.20;99.90;;;;;;5049815;28;20909;-71
2022/09/23 05:31:15;;;;;;;19.27;15.63;;;8.20;99.90;;;;;;5046111;28;20382;-72
2022/09/23 05:33:51;;;;;;;14.18;12.73;;;8.30;99.90;;;;;;5048287;28;20044;-72
2022/09/23 05:36:17;;;;;;;16.45;14.68;;;8.40;99.90;;;;;;5038860;28;20048;-72
2022/09/23 05:38:44;;;;;;;16.65;14.95;;;8.20;99.90;;;;;;5042510;28;20132;-72
2022/09/23 05:41:12;;;;;;;19.02;15.88;;;8.20;99.90;;;;;;5042887;28;20151;-71
2022/09/23 05:43:38;;;;;;;15.40;13.77;;;8.20;99.90;;;;;;5044446;28;20854;-72
2022/09/23 05:46:06;;;;;;;15.25;13.73;;;8.20;99.90;;;;;;5042477;28;20222;-72
2022/09/23 05:48:33;;;;;;;16.52;14.82;;;8.20;99.90;;;;;;5047557;28;20045;-73
2022/09/23 05:51:00;;;;;;;16.52;14.65;;;8.20;99.90;;;;;;5042128;28;20045;-72
2022/09/23 05:53:29;;;;;;;16.00;14.15;;;8.30;99.90;;;;;;5040623;28;20248;-74
2022/09/23 05:55:56;;;;;;;15.40;13.88;;;8.30;99.90;;;;;;5040757;28;20233;-73
2022/09/23 05:58:23;;;;;;;15.65;14.10;;;8.30;99.90;;;;;;5041691;28;20212;-73
2022/09/23 06:00:50;;;;;;;16.10;14.48;;;8.40;99.90;;;;;;5048190;28;20147;-73
2022/09/23 06:03:18;;;;;;;15.82;13.82;;;8.50;99.90;;;;;;5044973;28;20049;-73
2022/09/23 06:05:44;;;;;;;14.02;12.50;;;8.60;99.90;;;;;;5048252;28;20051;-73
2022/09/23 06:08:11;;;;;;;15.32;13.75;;;8.70;99.90;;;;;;5048924;28;20601;-74
2022/09/23 06:10:38;;;;;;;15.40;13.90;;;8.80;99.90;;;;;;5042025;28;20095;-73
2022/09/23 06:13:04;;;;;;;14.70;13.32;;;8.80;99.90;;;;;;5047852;28;20497;-73
2022/09/23 06:15:31;;;;;;;13.75;12.40;;;8.90;99.90;;;;;;5044094;28;20056;-73
2022/09/23 06:17:57;;;;;;;13.95;12.30;;;9.00;99.90;;;;;;5043817;28;20053;-74
2022/09/23 06:20:23;;;;;;;14.60;13.05;;;9.20;99.90;;;;;;5041232;28;20778;-73
2022/09/23 06:22:49;;;;;;;14.95;13.45;;;9.30;99.90;;;;;;5044210;28;20053;-73
2022/09/23 06:25:15;;;;;;;16.23;13.80;;;9.40;99.90;;;;;;5044246;28;20048;-73
2022/09/23 06:27:40;;;;;;;14.27;12.73;;;9.50;99.90;;;;;;5045491;28;20040;-73
2022/09/23 06:30:07;;;;;;;14.13;12.65;;;9.60;99.90;;;;;;5041842;28;20130;-73
2022/09/23 06:32:32;;;;;;;12.85;11.63;;;9.70;99.90;;;;;;5039298;28;20455;-73
2022/09/23 06:34:58;;;;;;;12.93;11.70;;;9.80;99.90;;;;;;5042688;28;20053;-73
2022/09/23 06:37:24;;;;;;;14.07;11.90;;;9.90;99.90;;;;;;5044895;28;20045;-73
2022/09/23 06:39:50;;;;;;;13.10;11.48;;;9.90;99.90;;;;;;5046025;28;20040;-74
2022/09/23 06:42:16;;;;;;;14.07;11.30;;;10.10;99.90;;;;;;5040193;28;20124;-73
2022/09/23 06:44:42;;;;;;;13.95;11.88;;;10.30;99.90;;;;;;5043253;28;20059;-73
2022/09/23 06:47:08;;;;;;;13.68;11.55;;;10.40;99.90;;;;;;5046981;28;20072;-73
2022/09/23 06:49:34;;;;;;;11.32;9.73;;;10.50;99.90;;;;;;5046481;28;20048;-73
2022/09/23 06:52:00;;;;;;;12.35;11.07;;;10.70;99.90;;;;;;5055267;28;20045;-73
2022/09/23 06:54:29;;;;;;;12.65;11.40;;;10.80;99.90;;;;;;5046588;28;20052;-74
2022/09/23 06:56:55;;;;;;;12.07;10.75;;;10.90;99.90;;;;;;5051119;28;20091;-77
2022/09/23 06:59:21;;;;;;;15.75;10.40;;;11.10;99.90;;;;;;5036465;28;20148;-77
2022/09/23 07:01:47;;;;;;;12.88;10.38;;;11.20;99.90;;;;;;5035996;28;20470;-77
2022/09/23 07:04:13;;;;;;;12.23;10.35;;;11.30;99.90;;;;;;5041280;28;20418;-76
2022/09/23 07:06:38;;;;;;;13.77;10.38;;;11.40;99.90;;;;;;5049391;28;20076;-74
2022/09/23 07:09:06;;;;;;;11.93;10.73;;;11.40;99.90;;;;;;5041705;28;20581;-75
2022/09/23 07:11:32;;;;;;;14.90;10.95;;;11.50;99.90;;;;;;5037803;28;20147;-75
2022/09/23 07:13:58;;;;;;;14.50;10.93;;;11.50;99.90;;;;;;5038422;28;20130;-74
2022/09/23 07:16:23;;;;;;;12.43;10.25;;;11.60;99.90;;;;;;5038258;28;20091;-75
2022/09/23 07:18:49;;;;;;;14.40;11.65;;;11.60;99.90;;;;;;5052913;28;20860;-75
2022/09/23 07:21:17;;;;;;;11.52;10.43;;;11.70;99.90;;;;;;5046806;28;20106;-74
2022/09/23 07:23:44;;;;;;;15.50;10.88;;;11.70;99.90;;;;;;5048894;28;20045;-74
2022/09/23 07:26:12;;;;;;;10.95;9.40;;;11.80;99.90;;;;;;5037568;28;20106;-74
2022/09/23 07:28:38;;;;;;;13.00;10.80;;;11.80;99.90;;;;;;5044863;28;20945;-74
2022/09/23 07:31:10;;;;;;;13.82;10.77;;;11.90;99.90;;;;;;5047768;28;20576;-75
2022/09/23 07:33:38;;;;;;;11.17;9.80;;;12.00;99.90;;;;;;5042845;28;20041;-74
2022/09/23 07:36:12;;;;;;;15.85;11.70;;;12.10;99.90;;;;;;5051375;28;20131;-74
2022/09/23 07:38:38;;;;;;;12.73;10.23;;;12.20;99.90;;;;;;5046901;28;20151;-74
2022/09/23 07:41:07;;;;;;;10.82;9.60;;;12.30;99.90;;;;;;5046627;28;20059;-74
2022/09/23 07:43:34;;;;;;;13.68;12.00;;;12.40;99.90;;;;;;5046263;28;20596;-74
2022/09/23 07:46:02;;;;;;;11.25;9.77;;;12.50;99.90;;;;;;5042562;28;20040;-74
2022/09/23 07:48:29;;;;;;;11.45;9.23;;;12.50;99.90;;;;;;5050040;28;20048;-74
2022/09/23 07:50:55;;;;;;;12.80;9.82;;;12.60;99.90;;;;;;5045595;28;20044;-74
2022/09/23 07:53:22;;;;;;;13.98;10.27;;;12.60;99.90;;;;;;5046750;28;20142;-74
2022/09/23 07:55:55;;;;;;;12.23;10.23;;;12.70;99.90;;;;;;5044188;28;20060;-74
2022/09/23 07:58:22;;;;;;;13.13;10.07;;;12.70;99.90;;;;;;5043127;28;20072;-74
2022/09/23 08:00:49;;;;;;;10.80;9.00;;;12.80;99.90;;;;;;5047424;28;20134;-73
2022/09/23 08:03:15;;;;;;;14.82;10.40;;;12.90;99.90;;;;;;5048895;28;20048;-74
2022/09/23 08:05:41;;;;;;;12.38;10.40;;;12.90;99.90;;;;;;5048532;28;20067;-75
2022/09/23 08:08:07;;;;;;;11.38;8.63;;;13.00;99.90;;;;;;5051374;28;20053;-74
2022/09/23 08:10:33;;;;;;;9.40;8.40;;;13.10;99.90;;;;;;5048707;28;20040;-75
2022/09/23 08:13:02;;;;;;;12.38;10.27;;;13.10;99.90;;;;;;5048443;28;20051;-74
2022/09/23 08:15:30;;;;;;;14.75;9.73;;;13.20;99.90;;;;;;5051267;28;20044;-74
2022/09/23 08:17:59;;;;;;;11.30;10.18;;;13.20;99.90;;;;;;5049773;28;20798;-74
2022/09/23 08:20:44;;;;;;;13.45;9.68;;;13.20;99.90;;;;;;5050858;28;20230;-74
2022/09/23 08:23:13;;;;;;;13.00;8.98;;;13.30;99.90;;;;;;5048613;28;20055;-74
2022/09/23 08:25:40;;;;;;;10.20;9.20;;;13.50;99.90;;;;;;5051385;28;20866;-74
2022/09/23 08:28:05;;;;;;;10.30;9.27;;;13.70;99.90;;;;;;5045303;28;20083;-74
2022/09/23 08:30:31;;;;;;;11.13;9.45;;;13.90;99.90;;;;;;5049184;28;20490;-75
2022/09/23 08:32:57;;;;;;;10.98;9.30;;;14.20;99.90;;;;;;5049633;28;20135;-74
2022/09/23 08:35:22;;;;;;;10.80;9.32;;;14.60;99.90;;;;;;5047142;28;20130;-75
2022/09/23 08:37:49;;;;;;;10.80;8.73;;;15.00;99.90;;;;;;5044168;28;20054;-74
2022/09/23 08:40:15;;;;;;;9.52;8.27;;;15.50;99.90;;;;;;5048480;28;20056;-72
2022/09/23 08:42:44;;;;;;;8.65;7.82;;;15.80;99.90;;;;;;5045320;28;20063;-76
2022/09/23 08:45:25;;;;;;;8.77;7.95;;;16.10;99.90;;;;;;5048885;28;20048;-73
2022/09/23 08:47:51;;;;;;;10.13;7.88;;;16.40;99.90;;;;;;5045226;28;20058;-73
2022/09/23 08:50:20;;;;;;;11.73;8.52;;;16.70;99.90;;;;;;5046914;28;20845;-73
2022/09/23 08:52:46;;;;;;;13.60;8.43;;;16.90;99.90;;;;;;5050773;28;20071;-73
2022/09/23 08:55:13;;;;;;;9.30;8.40;;;16.90;99.90;;;;;;5049232;28;20549;-73
2022/09/23 08:57:48;;;;;;;8.77;7.75;;;16.90;99.90;;;;;;5054229;28;20044;-73
2022/09/23 09:00:33;;;;;;;10.10;7.80;;;16.90;99.90;;;;;;5052247;28;20817;-73
2022/09/23 09:02:59;;;;;;;9.10;8.15;;;16.80;99.90;;;;;;5047841;28;20127;-73
2022/09/23 09:05:26;;;;;;;8.48;7.43;;;16.80;99.90;;;;;;5046245;28;20084;-73
2022/09/23 09:07:56;;;;;;;8.88;7.68;;;16.70;99.90;;;;;;5054115;28;20827;-73
2022/09/23 09:10:26;;;;;;;8.30;7.45;;;16.60;99.90;;;;;;5052396;28;20642;-73
2022/09/23 09:13:29;;;;;;;11.02;7.78;;;16.50;99.90;;;;;;5050987;28;20041;-73
2022/09/23 09:16:16;;;;;;;7.95;7.18;;;16.50;99.90;;;;;;5044733;28;20053;-73
2022/09/23 09:18:52;;;;;;;9.52;8.35;;;16.40;99.90;;;;;;5054153;28;20140;-73
2022/09/23 09:21:41;;;;;;;9.82;7.15;;;16.40;99.90;;;;;;5048025;28;20099;-74
2022/09/23 09:24:20;;;;;;;9.55;6.75;;;16.50;99.90;;;;;;5044291;28;20498;-73
2022/09/23 09:26:46;;;;;;;9.18;7.57;;;16.50;99.90;;;;;;5043653;28;20080;-73
2022/09/23 09:29:19;;;;;;;8.02;7.22;;;16.60;99.90;;;;;;5052543;28;20225;-73
2022/09/23 09:31:49;;;;;;;8.52;7.47;;;16.30;99.90;;;;;;5042802;28;20418;-73
2022/09/23 09:34:29;;;;;;;9.27;7.93;;;16.20;99.90;;;;;;5041259;28;20402;-74
2022/09/23 09:37:06;;;;;;;9.45;7.22;;;16.10;99.90;;;;;;5049541;28;20095;-69
2022/09/23 09:39:33;;;;;;;8.82;7.50;;;16.00;99.90;;;;;;5043351;28;20148;-73
2022/09/23 09:42:00;;;;;;;9.45;7.95;;;16.00;99.90;;;;;;5041923;28;20099;-73
2022/09/23 09:44:53;;;;;;;10.20;7.25;;;15.90;99.90;;;;;;5040169;28;20044;-73
2022/09/23 09:47:27;;;;;;;8.18;7.38;;;15.90;99.90;;;;;;5039163;28;20435;-73
2022/09/23 09:50:04;;;;;;;9.57;7.20;;;15.90;99.90;;;;;;5046218;28;20131;-73
2022/09/23 09:52:30;;;;;;;10.25;7.90;;;15.80;99.90;;;;;;5047606;28;20426;-73
2022/09/23 09:55:11;;;;;;;9.48;6.72;;;15.80;99.90;;;;;;5043462;28;20048;-72
2022/09/23 09:57:47;;;;;;;9.15;7.00;;;15.80;99.90;;;;;;5047415;28;20042;-73
2022/09/23 10:00:25;;;;;;;9.32;7.13;;;15.80;99.90;;;;;;5049882;28;20161;-74
2022/09/23 10:03:00;;;;;;;7.60;6.80;;;15.80;99.90;;;;;;5057268;28;20584;-72
2022/09/23 10:05:31;;;;;;;8.00;7.15;;;15.80;99.90;;;;;;5052383;28;20120;-73
2022/09/23 10:08:20;;;;;;;10.48;6.65;;;15.80;99.90;;;;;;5049798;28;20110;-72
2022/09/23 10:11:11;;;;;;;10.20;7.03;;;15.90;99.90;;;;;;5051247;28;20383;-73
2022/09/23 10:13:36;;;;;;;8.00;6.72;;;15.90;99.90;;;;;;5041882;28;20044;-72
2022/09/23 10:16:03;;;;;;;9.93;7.22;;;15.90;99.90;;;;;;5048730;28;20040;-72
2022/09/23 10:18:37;;;;;;;8.52;6.75;;;16.00;99.90;;;;;;5054370;28;20113;-72
2022/09/23 10:21:07;;;;;;;7.53;6.72;;;16.00;99.90;;;;;;5049404;28;20124;-72
2022/09/23 10:23:34;;;;;;;7.90;7.10;;;16.10;99.90;;;;;;5042229;28;20326;-72
2022/09/23 10:26:02;;;;;;;10.57;6.28;;;16.10;99.90;;;;;;5048945;28;20048;-73
2022/09/23 10:28:49;;;;;;;10.35;6.72;;;16.10;99.90;;;;;;5047886;28;20036;-73
2022/09/23 10:31:41;;;;;;;7.90;6.55;;;16.20;99.90;;;;;;5038033;28;20049;-73
2022/09/23 10:34:33;;;;;;;10.63;8.27;;;16.20;99.90;;;;;;5050085;28;20051;-73
2022/09/23 10:37:23;;;;;;;7.45;6.20;;;16.20;99.90;;;;;;5042848;28;20083;-73
2022/09/23 10:48:47;;;;;;;7.60;6.18;;;16.50;99.90;;;;;;5046609;28;20044;-73
2022/09/23 10:51:37;;;;;;;10.05;6.45;;;16.60;99.90;;;;;;5046304;28;20596;-73
2022/09/23 10:54:21;;;;;;;7.05;6.35;;;16.60;99.90;;;;;;5042754;28;20814;-72
2022/09/23 10:57:36;;;;;;;8.77;6.65;;;16.70;99.90;;;;;;5039900;28;20387;-72
2022/09/23 10:59:59;;;;;;;7.22;5.85;;;16.60;99.90;;;;;;5041844;28;20057;-73
2022/09/23 11:02:44;;;;;;;8.45;6.95;;;16.60;99.90;;;;;;5037990;28;20049;-72
2022/09/23 11:05:22;;;;;;;5.93;5.30;;;16.70;99.90;;;;;;5042035;28;20151;-73
2022/09/23 11:08:22;;;;;;;7.72;6.57;;;16.70;99.90;;;;;;5042661;28;20040;-72
2022/09/23 11:10:59;;;;;;;9.77;7.22;;;16.70;99.90;;;;;;5047871;28;20044;-72
2022/09/23 11:13:50;;;;;;;7.13;6.43;;;16.80;99.90;;;;;;5046497;28;20048;-72
2022/09/23 11:16:37;;;;;;;11.10;6.93;;;16.80;99.90;;;;;;5043778;28;20052;-72
2022/09/23 11:19:22;;;;;;;9.32;7.22;;;16.90;99.90;;;;;;5044275;28;20882;-73
2022/09/23 11:22:14;;;;;;;6.68;5.90;;;16.90;99.90;;;;;;5043803;28;20056;-73
2022/09/23 11:25:03;;;;;;;7.25;6.15;;;17.00;99.90;;;;;;5042527;28;20075;-72
2022/09/23 11:27:38;;;;;;;7.45;5.93;;;17.00;99.90;;;;;;5042931;28;20121;-73
2022/09/23 11:30:11;;;;;;;13.27;8.10;;;17.10;99.90;;;;;;5041819;28;20121;-72
2022/09/23 11:32:55;;;;;;;;;;;17.10;99.90;;;;;;5043151;28;20074;-73
2022/09/23 11:35:41;;;;;;;6.45;5.60;;;17.10;99.90;;;;;;5046191;28;19924;-73
2022/09/23 11:38:20;;;;;;;7.90;5.70;;;17.20;99.90;;;;;;5044612;28;20040;-73
2022/09/23 11:40:53;;;;;;;9.55;6.93;;;17.20;99.90;;;;;;5041202;28;20124;-73
2022/09/23 11:43:32;;;;;;;9.10;7.63;;;17.30;99.90;;;;;;5045430;28;20101;-73
2022/09/23 11:46:31;;;;;;;7.80;6.63;;;17.20;99.90;;;;;;5042048;28;20049;-73
2022/09/23 11:49:20;;;;;;;7.57;6.78;;;17.20;99.90;;;;;;5044594;28;20331;-72
2022/09/23 11:51:59;;;;;;;8.93;6.90;;;17.30;99.90;;;;;;5044496;28;20155;-73
2022/09/23 11:54:42;;;;;;;8.90;6.80;;;17.20;99.90;;;;;;5040984;28;20122;-72
2022/09/23 11:57:18;;;;;;;10.90;7.65;;;17.20;99.90;;;;;;5043090;28;20080;-72
2022/09/23 11:59:56;;;;;;;10.93;7.18;;;17.20;99.90;;;;;;5038709;28;20432;-72
2022/09/23 12:02:41;;;;;;;10.63;7.03;;;17.20;99.90;;;;;;5040358;28;20041;-72
2022/09/23 12:05:15;;;;;;;9.70;7.63;;;17.20;99.90;;;;;;5044775;28;20052;-73
2022/09/23 12:08:02;;;;;;;10.05;8.02;;;17.20;99.90;;;;;;5041687;28;20079;-73
2022/09/23 12:11:00;;;;;;;11.57;8.27;;;17.20;99.90;;;;;;5040612;28;20544;-73
2022/09/23 12:13:51;;;;;;;8.05;7.22;;;17.20;99.90;;;;;;5040746;28;20083;-74
2022/09/23 12:16:37;;;;;;;8.75;7.40;;;17.30;99.90;;;;;;5044519;28;20045;-72
2022/09/23 12:19:18;;;;;;;8.63;7.25;;;17.30;99.90;;;;;;5048315;28;20048;-73
2022/09/23 12:21:44;;;;;;;8.68;7.00;;;17.20;99.90;;;;;;5044380;28;20053;-72
2022/09/23 12:24:15;;;;;;;9.73;6.82;;;17.20;99.90;;;;;;5050367;28;20041;-73
2022/09/23 12:26:43;;;;;;;8.77;7.35;;;17.20;99.90;;;;;;5050698;28;20200;-72
2022/09/23 12:29:12;;;;;;;10.40;7.68;;;17.30;99.90;;;;;;5045048;28;20555;-73
2022/09/23 12:31:39;;;;;;;10.10;8.18;;;17.40;99.90;;;;;;5055505;28;20370;-73
2022/09/23 12:34:30;;;;;;;10.68;7.78;;;17.40;99.90;;;;;;5045733;28;20481;-72
2022/09/23 12:37:05;;;;;;;9.32;7.57;;;17.60;99.90;;;;;;5050080;28;20401;-72
2022/09/23 12:39:34;;;;;;;8.90;7.18;;;17.70;99.90;;;;;;5050999;28;20048;-73
2022/09/23 12:42:19;;;;;;;11.60;7.65;;;17.70;99.90;;;;;;5045976;28;20080;-72
2022/09/23 12:44:46;;;;;;;11.70;7.75;;;17.70;99.90;;;;;;5046927;28;20106;-72
2022/09/23 12:47:23;;;;;;;10.07;8.85;;;17.70;99.90;;;;;;5046378;28;20053;-73
2022/09/23 12:49:51;;;;;;;10.82;8.25;;;17.70;99.90;;;;;;5051316;28;20173;-72
2022/09/23 12:52:16;;;;;;;8.38;7.45;;;17.70;99.90;;;;;;5053551;28;20105;-72
2022/09/23 12:54:47;;;;;;;13.73;8.13;;;17.70;99.90;;;;;;5054780;28;20048;-72
2022/09/23 12:57:13;;;;;;;11.27;8.73;;;17.70;99.90;;;;;;5047431;28;20749;-72
2022/09/23 12:59:52;;;;;;;9.32;7.70;;;17.70;99.90;;;;;;5048393;28;20069;-72
2022/09/23 13:06:37;;;;;;;10.18;7.85;;;17.70;99.90;;;;;;5047834;28;20106;-72
2022/09/23 13:08:30;;;;;;;9.23;7.45;;;17.60;99.90;;;;;;5053945;28;20092;-72
2022/09/23 13:10:59;;;;;;;10.40;7.80;;;17.70;99.90;;;;;;5046779;28;20384;-72
2022/09/23 13:13:30;;;;;;;10.32;8.07;;;17.70;99.90;;;;;;5047965;28;20476;-72
2022/09/23 13:16:11;;;;;;;8.43;7.13;;;17.60;99.90;;;;;;5046955;28;20055;-72
2022/09/23 13:18:57;;;;;;;8.95;7.95;;;17.60;99.90;;;;;;5048015;28;20040;-72
2022/09/23 13:21:41;;;;;;;11.07;7.43;;;17.60;99.90;;;;;;5049347;28;20045;-72